KDEN/DEN METAR and TAF weather

Enter ICAO airport designator
Station Type Date Time Source
KDEN METAR 2019/06/16 05:53 UTC NOAA

KDEN 160553Z 16010KT 10SM SCT120 BKN220 14/10 A3007 RMK AO2 SLP115 60002 T01390100 10206 20122 50004 $


Station Type Date Time Source
KDEN Decoded METAR 2019/06/16 05:53 UTC NOAA

DENVER INTERNATIONAL AIRPORT, CO, United States (KDEN) 39-52N 104-40W 1640M
Jun 16, 2019 - 01:53 AM EDT / 2019.06.16 0553 UTC
Wind: from the SSE (160 degrees) at 12 MPH (10 KT):0
Visibility: 10 mile(s):0
Sky conditions: mostly cloudy
Temperature: 57.0 F (13.9 C)
Dew Point: 50.0 F (10.0 C)
Relative Humidity: 77%
Pressure (altimeter): 30.07 in. Hg (1018 hPa)
Pressure tendency: 0.01 inches (0.4 hPa) higher than three hours ago
ob: KDEN 160553Z 16010KT 10SM SCT120 BKN220 14/10 A3007 RMK AO2 SLP115 60002 T01390100 10206 20122 50004
cycle: 6

Station Type Date Time Source
KDEN TAF 2019/06/16 06:39 UTC NOAA

TAF KDEN 160536Z 1606/1712 21008KT P6SM FEW120
FM161900 15010KT P6SM SCT070 SCT120
FM162200 04010KT P6SM VCTS SCT060CB BKN100 PROB30 1622/1702 VRB15G25KT -TSRA BKN060CB
FM170300 15008KT P6SM SCT060 BKN100
FM170600 18008KT P6SM FEW070 SCT120

Example: see airport list